Time;durP1;ratioP1;P1;durP2;ratioP2;P2;SDS_P1;SDS_P2;PMS_P1;PMS_P2;Temp;Humidity;BMP_temperature;BMP_pressure;BME280_temperature;BME280_humidity;BME280_pressure;Samples;Min_cycle;Max_cycle;Signal;HPM_P1;HPM_P2
2022/12/29 00:01:16;;;;;;;2.45;1.80;;;;;;;13.93;70.66;99896.84;5008093;28;20049;-43
2022/12/29 00:03:41;;;;;;;3.85;1.90;;;;;;;14.17;69.84;99888.59;5012240;28;20037;-42
2022/12/29 00:06:07;;;;;;;3.38;1.90;;;;;;;14.33;69.10;99889.22;5009648;28;20042;-49
2022/12/29 00:08:41;;;;;;;3.22;2.00;;;;;;;14.07;70.19;99888.78;5011398;28;20096;-45
2022/12/29 00:11:08;;;;;;;3.85;1.80;;;;;;;14.31;68.90;99877.88;5008244;28;20041;-42
2022/12/29 00:16:17;;;;;;;3.80;2.00;;;;;;;14.07;69.70;99863.44;5007558;28;20052;-43
2022/12/29 00:18:43;;;;;;;3.88;1.83;;;;;;;14.09;69.77;99863.38;5008858;28;20034;-43
2022/12/29 00:35:09;;;;;;;3.38;1.88;;;;;;;13.95;69.03;99850.53;5008775;28;20560;-43
2022/12/29 00:45:56;;;;;;;2.58;1.50;;;;;;;14.02;69.45;99832.97;5005810;28;20091;-42
2022/12/29 00:51:07;;;;;;;3.33;1.63;;;;;;;14.16;69.71;99820.47;5006073;28;20122;-43
2022/12/29 00:53:33;;;;;;;3.38;1.50;;;;;;;14.26;69.22;99826.41;5008714;28;20121;-43
2022/12/29 00:55:59;;;;;;;2.75;1.50;;;;;;;14.30;69.43;99835.94;5006269;28;20113;-42
2022/12/29 00:58:27;;;;;;;2.55;1.60;;;;;;;13.70;71.42;99828.25;5007968;28;20041;-46
2022/12/29 01:01:00;;;;;;;2.40;1.50;;;;;;;13.89;71.11;99827.06;5007388;28;20609;-44
2022/12/29 01:03:25;;;;;;;2.97;1.50;;;;;;;13.80;71.09;99828.06;5005715;28;20498;-41
2022/12/29 01:05:50;;;;;;;2.65;1.20;;;;;;;13.57;71.76;99808.38;5005791;28;20030;-44
2022/12/29 01:08:15;;;;;;;1.70;1.25;;;;;;;13.88;70.51;99821.84;5005077;28;20037;-41
2022/12/29 01:10:41;;;;;;;2.38;1.23;;;;;;;13.69;71.61;99821.28;5007631;28;20058;-45
2022/12/29 01:13:06;;;;;;;2.00;1.10;;;;;;;13.95;70.69;99829.59;5005996;28;20491;-40
2022/12/29 01:15:31;;;;;;;3.33;1.10;;;;;;;13.64;71.61;99828.34;5007203;28;20042;-42
2022/12/29 01:17:57;;;;;;;3.28;1.10;;;;;;;14.09;70.33;99835.44;5005286;28;20065;-42
2022/12/29 01:20:22;;;;;;;2.55;1.20;;;;;;;13.50;72.69;99853.88;5006750;28;20040;-42
2022/12/29 01:22:47;;;;;;;1.83;1.20;;;;;;;13.30;72.92;99839.31;5007155;28;20030;-42
2022/12/29 01:25:12;;;;;;;2.72;1.30;;;;;;;13.56;71.56;99852.03;5005426;28;20086;-48
2022/12/29 01:27:38;;;;;;;3.15;1.30;;;;;;;13.38;73.16;99849.69;5006768;28;20038;-43
2022/12/29 01:30:04;;;;;;;3.70;1.60;;;;;;;13.65;72.23;99853.66;5005123;28;20045;-43
2022/12/29 01:32:29;;;;;;;2.50;1.23;;;;;;;13.64;71.68;99847.53;5005077;28;20178;-44
2022/12/29 01:34:54;;;;;;;2.38;1.40;;;;;;;13.57;71.99;99845.91;5006767;28;20157;-42
2022/12/29 01:37:20;;;;;;;3.05;1.45;;;;;;;13.75;71.44;99842.13;5004137;28;20033;-46
2022/12/29 01:39:45;;;;;;;3.08;1.52;;;;;;;13.76;71.58;99833.38;5006882;28;20406;-43
2022/12/29 01:42:19;;;;;;;2.38;1.50;;;;;;;13.73;71.36;99825.56;5005043;28;20038;-42
2022/12/29 01:44:51;;;;;;;3.90;1.52;;;;;;;13.71;71.63;99824.75;5006585;28;20060;-48
2022/12/29 01:47:38;;;;;;;3.05;1.48;;;;;;;13.61;71.86;99831.00;5005204;28;20029;-46
2022/12/29 01:50:15;;;;;;;3.28;1.45;;;;;;;13.49;72.34;99833.81;5005699;28;20041;-42
2022/12/29 01:52:51;;;;;;;2.28;1.30;;;;;;;13.52;71.83;99826.78;5007420;28;20029;-43
2022/12/29 01:55:17;;;;;;;4.97;1.30;;;;;;;13.56;71.48;99828.47;5005198;28;20064;-42
2022/12/29 01:57:47;;;;;;;5.10;1.30;;;;;;;13.31;71.72;99850.66;5006194;28;20125;-43
2022/12/29 02:00:14;;;;;;;4.60;1.25;;;;;;;13.15;72.62;99854.38;5004502;28;20030;-47
2022/12/29 02:02:47;;;;;;;3.10;1.00;;;;;;;13.52;71.85;99867.81;5006113;28;20030;-46
2022/12/29 02:05:22;;;;;;;5.07;0.90;;;;;;;13.62;71.16;99854.56;5004544;28;20061;-41
2022/12/29 02:07:50;;;;;;;2.63;0.90;;;;;;;13.70;70.39;99851.81;5006054;28;20498;-47
2022/12/29 02:10:15;;;;;;;3.05;1.08;;;;;;;13.67;70.17;99857.97;5004439;28;24533;-44
2022/12/29 02:12:41;;;;;;;5.18;1.13;;;;;;;13.65;70.80;99851.03;5004790;28;20034;-44
2022/12/29 02:15:07;;;;;;;4.45;1.30;;;;;;;13.43;71.32;99849.59;5004682;28;20066;-44
2022/12/29 02:17:50;;;;;;;3.97;1.00;;;;;;;13.13;72.89;99850.91;5006462;28;20030;-43
2022/12/29 02:20:37;;;;;;;5.25;1.13;;;;;;;13.16;73.75;99861.34;5004669;28;20084;-42
2022/12/29 02:23:26;;;;;;;6.50;1.10;;;;;;;12.75;75.65;99878.34;5003112;28;20494;-44
2022/12/29 02:26:06;;;;;;;6.95;1.17;;;;;;;12.82;75.88;99893.09;5006532;28;20030;-40
2022/12/29 02:28:54;;;;;;;7.00;1.38;;;;;;;12.35;78.57;99869.22;5005904;28;20065;-42
2022/12/29 02:31:28;;;;;;;2.30;0.95;;;;;;;12.49;77.41;99849.03;5005317;28;20033;-41
2022/12/29 02:34:20;;;;;;;;;;;;;;;12.57;76.31;99842.81;5007967;28;20100;-40
2022/12/29 02:37:00;;;;;;;2.97;0.93;;;;;;;12.79;76.47;99860.91;4996555;28;19928;-41
2022/12/29 02:39:32;;;;;;;3.75;1.05;;;;;;;12.68;76.25;99853.19;5005146;28;20076;-42
2022/12/29 02:42:33;;;;;;;6.38;1.35;;;;;;;12.98;75.08;99859.78;5006255;28;20781;-48
2022/12/29 02:45:07;;;;;;;4.18;1.00;;;;;;;12.68;75.75;99847.94;5000963;28;20034;-42
2022/12/29 02:47:32;;;;;;;;;;;;;;;12.54;75.75;99849.84;5006516;28;20521;-41
2022/12/29 02:50:04;;;;;;;3.33;0.90;;;;;;;12.92;74.85;99852.03;5009743;28;19917;-41
2022/12/29 02:52:35;;;;;;;4.10;0.90;;;;;;;12.51;75.28;99845.50;5009453;28;20277;-46
2022/12/29 02:55:00;;;;;;;6.40;1.40;;;;;;;12.62;74.96;99837.56;5016347;28;20034;-41
2022/12/29 02:57:26;;;;;;;7.07;1.23;;;;;;;12.51;74.75;99828.94;5017340;28;20114;-50
2022/12/29 03:00:08;;;;;;;7.35;1.52;;;;;;;12.59;73.97;99843.69;5015678;28;20609;-42
2022/12/29 03:02:56;;;;;;;12.45;1.88;;;;;;;12.42;74.10;99848.22;5012522;28;20038;-43
2022/12/29 03:05:41;;;;;;;7.45;1.40;;;;;;;12.26;75.18;99853.63;5010525;28;20053;-42
2022/12/29 03:08:14;;;;;;;8.73;1.52;;;;;;;12.36;75.38;99845.69;5030734;22;20364;-43
2022/12/29 03:11:00;;;;;;;8.30;1.63;;;;;;;12.16;75.64;99845.00;5010998;28;20045;-40
2022/12/29 03:17:18;;;;;;;12.40;1.42;;;;;;;12.70;73.50;99840.94;5012956;28;20057;-40
2022/12/29 03:19:51;;;;;;;10.55;1.30;;;;;;;12.95;73.03;99825.81;4973117;28;20067;-41
2022/12/29 03:22:30;;;;;;;8.68;1.48;;;;;;;12.85;73.16;99838.16;4971834;28;20039;-41
2022/12/29 03:25:20;;;;;;;8.85;1.27;;;;;;;12.87;72.50;99806.72;4997665;28;20056;-41
2022/12/29 03:27:51;;;;;;;10.93;1.48;;;;;;;12.31;73.71;99817.88;5008213;28;20033;-41
2022/12/29 03:30:16;;;;;;;7.03;1.25;;;;;;;12.79;72.24;99821.66;5011505;28;20037;-40
2022/12/29 03:32:47;;;;;;;8.05;1.23;;;;;;;12.50;73.40;99812.41;5013370;28;20040;-42
2022/12/29 03:35:15;;;;;;;7.28;1.20;;;;;;;12.79;72.46;99817.31;5008710;28;20041;-42
2022/12/29 03:37:49;;;;;;;7.43;1.30;;;;;;;12.49;72.62;99813.31;5009622;28;20564;-42
2022/12/29 03:40:15;;;;;;;7.82;1.42;;;;;;;12.49;72.80;99829.00;5008186;28;20053;-40
2022/12/29 03:42:41;;;;;;;7.72;1.50;;;;;;;12.70;71.95;99819.16;5010816;28;20557;-41
2022/12/29 03:45:07;;;;;;;4.28;0.98;;;;;;;12.77;71.15;99833.88;5008574;28;20034;-40
2022/12/29 03:47:33;;;;;;;7.30;1.40;;;;;;;12.78;71.49;99835.63;5010729;28;20084;-41
2022/12/29 03:49:58;;;;;;;7.65;1.48;;;;;;;12.68;71.15;99840.09;5008693;28;20030;-42
2022/12/29 03:52:23;;;;;;;6.00;1.10;;;;;;;12.93;70.44;99819.72;5009888;28;20030;-40
2022/12/29 03:54:49;;;;;;;5.93;1.30;;;;;;;12.78;71.05;99809.47;5010016;28;20030;-41
2022/12/29 03:57:14;;;;;;;5.60;1.40;;;;;;;12.59;71.01;99825.38;5008136;28;20038;-41
2022/12/29 03:59:39;;;;;;;6.07;1.20;;;;;;;12.86;69.99;99815.47;5008975;28;20479;-41
2022/12/29 04:02:05;;;;;;;6.05;1.27;;;;;;;12.75;69.92;99830.41;5008150;28;20045;-41
2022/12/29 04:04:30;;;;;;;7.85;1.50;;;;;;;12.74;69.97;99847.88;5009871;28;20033;-38
2022/12/29 04:06:55;;;;;;;7.38;1.30;;;;;;;12.72;70.00;99835.69;5008079;28;20387;-42
2022/12/29 04:09:20;;;;;;;7.25;1.20;;;;;;;12.62;69.78;99841.94;5008627;28;20512;-41
2022/12/29 04:11:46;;;;;;;9.13;1.60;;;;;;;12.50;69.61;99841.16;5008716;28;20073;-42
2022/12/29 04:14:11;;;;;;;8.45;1.40;;;;;;;12.51;69.34;99855.09;5006560;28;20034;-39
2022/12/29 04:16:38;;;;;;;9.45;1.42;;;;;;;12.52;68.81;99859.44;5009181;28;20033;-43
2022/12/29 04:19:04;;;;;;;10.95;1.60;;;;;;;12.17;69.73;99858.06;5006646;28;20056;-42
2022/12/29 04:21:29;;;;;;;12.52;1.88;;;;;;;12.59;68.87;99855.88;5006944;28;20041;-43
2022/12/29 04:23:55;;;;;;;10.75;1.77;;;;;;;12.52;68.79;99844.63;5008385;28;20042;-42
2022/12/29 04:26:20;;;;;;;12.35;1.60;;;;;;;12.63;68.20;99862.81;5004863;28;20104;-43
2022/12/29 04:28:45;;;;;;;12.40;1.58;;;;;;;12.60;68.79;99849.78;5007903;28;20513;-42
2022/12/29 04:31:11;;;;;;;12.13;1.90;;;;;;;12.39;69.55;99843.03;5006210;28;20058;-42
2022/12/29 04:33:36;;;;;;;9.77;1.55;;;;;;;12.87;68.59;99838.09;5008697;28;20040;-44
2022/12/29 04:36:02;;;;;;;10.63;1.95;;;;;;;12.64;70.34;99846.22;5006420;28;20042;-41
2022/12/29 04:38:27;;;;;;;9.30;1.50;;;;;;;12.43;71.12;99847.34;5008173;28;20100;-41
2022/12/29 04:40:53;;;;;;;8.60;1.40;;;;;;;12.70;70.63;99866.22;5011210;28;20076;-43
2022/12/29 04:43:24;;;;;;;8.43;1.30;;;;;;;12.22;72.33;99863.22;5011178;28;20085;-43
2022/12/29 04:45:49;;;;;;;9.88;1.52;;;;;;;12.38;72.38;99863.97;5013011;28;20130;-41
2022/12/29 04:48:14;;;;;;;5.57;1.08;;;;;;;11.92;73.94;99866.97;5011397;28;20138;-42
2022/12/29 04:50:40;;;;;;;8.77;1.30;;;;;;;12.11;73.32;99865.09;5012346;28;20061;-41
2022/12/29 04:53:06;;;;;;;6.95;1.15;;;;;;;12.45;71.95;99874.31;5009913;28;20065;-41
2022/12/29 04:55:32;;;;;;;9.30;2.22;;;;;;;12.36;72.29;99855.25;5012869;28;20030;-43
2022/12/29 04:57:57;;;;;;;7.45;1.23;;;;;;;12.57;70.89;99855.91;5009935;28;20046;-40
2022/12/29 05:00:22;;;;;;;11.65;1.48;;;;;;;12.08;72.39;99852.03;5010487;28;20034;-39
2022/12/29 05:02:48;;;;;;;10.23;1.63;;;;;;;12.31;72.36;99872.75;5008925;28;20394;-43
2022/12/29 05:05:13;;;;;;;7.82;1.30;;;;;;;12.16;72.06;99871.13;5004371;28;20034;-40
2022/12/29 05:07:39;;;;;;;12.00;1.98;;;;;;;12.33;71.64;99877.06;5007295;28;20073;-43
2022/12/29 05:10:05;;;;;;;10.30;1.45;;;;;;;12.40;71.75;99891.81;5005382;28;20054;-43
2022/12/29 05:12:32;;;;;;;10.50;1.55;;;;;;;12.44;71.81;99885.66;5007245;28;20033;-42
2022/12/29 05:14:57;;;;;;;9.98;1.67;;;;;;;12.63;70.58;99888.06;5005289;28;20530;-42
2022/12/29 05:17:22;;;;;;;10.30;1.58;;;;;;;12.56;70.74;99880.31;5009554;28;20034;-40
2022/12/29 05:19:48;;;;;;;9.55;1.45;;;;;;;12.56;71.34;99895.16;5009561;28;20117;-42
2022/12/29 05:22:14;;;;;;;8.75;1.52;;;;;;;12.74;70.48;99892.34;5006709;28;20038;-42
2022/12/29 05:24:39;;;;;;;11.95;1.65;;;;;;;12.53;71.41;99884.72;5008145;28;20044;-45
2022/12/29 05:27:04;;;;;;;8.98;1.42;;;;;;;12.49;71.49;99878.66;5005455;28;20038;-41
2022/12/29 05:29:30;;;;;;;10.70;1.70;;;;;;;12.37;71.76;99889.25;5008791;28;20372;-42
2022/12/29 05:31:55;;;;;;;12.00;1.60;;;;;;;12.92;70.27;99888.66;5006590;28;20030;-58
2022/12/29 05:34:20;;;;;;;8.23;1.45;;;;;;;12.63;71.09;99885.47;5006748;28;20357;-40
2022/12/29 05:36:46;;;;;;;9.88;1.83;;;;;;;12.48;71.62;99889.13;5007526;28;20049;-45
2022/12/29 05:39:11;;;;;;;13.35;2.13;;;;;;;12.38;71.01;99890.94;5007075;28;20065;-41
2022/12/29 05:41:36;;;;;;;10.45;1.77;;;;;;;12.69;70.89;99893.25;5011398;28;20064;-41
2022/12/29 05:44:02;;;;;;;15.68;1.90;;;;;;;12.46;71.29;99910.03;5010426;28;20064;-41
2022/12/29 05:46:28;;;;;;;15.88;2.10;;;;;;;12.07;71.80;99885.16;5012356;28;20029;-41
2022/12/29 05:48:53;;;;;;;11.75;1.98;;;;;;;12.11;71.98;99899.06;5012544;28;20030;-42
2022/12/29 05:51:18;;;;;;;14.25;2.05;;;;;;;12.26;72.49;99898.06;5009460;28;20035;-41
2022/12/29 05:53:44;;;;;;;10.85;1.90;;;;;;;12.19;72.55;99887.66;5010568;28;20037;-42
2022/12/29 05:56:09;;;;;;;12.90;1.98;;;;;;;12.51;71.92;99915.22;5009645;28;20429;-44
2022/12/29 05:58:34;;;;;;;10.20;1.73;;;;;;;12.04;73.29;99908.69;5008595;28;20042;-42
2022/12/29 06:01:00;;;;;;;11.85;1.60;;;;;;;12.18;73.03;99911.19;5004992;28;20121;-43
2022/12/29 06:03:25;;;;;;;13.30;2.20;;;;;;;12.14;72.55;99920.78;5006924;28;20030;-42
2022/12/29 06:05:51;;;;;;;12.85;1.90;;;;;;;12.06;73.22;99913.91;5007039;28;20497;-42
2022/12/29 06:08:16;;;;;;;12.18;2.00;;;;;;;12.34;72.15;99923.22;5003345;28;20041;-41
2022/12/29 06:10:41;;;;;;;13.57;2.25;;;;;;;11.93;73.35;99917.47;5005427;28;20473;-42
2022/12/29 06:13:07;;;;;;;14.60;2.20;;;;;;;11.95;72.81;99913.13;5004543;28;20220;-40
2022/12/29 06:15:33;;;;;;;12.40;2.20;;;;;;;12.28;72.45;99928.50;5007974;28;20029;-41
2022/12/29 06:17:58;;;;;;;13.02;1.85;;;;;;;12.28;71.39;99928.50;5005238;28;20041;-41
2022/12/29 06:20:23;;;;;;;13.35;2.65;;;;;;;12.06;72.16;99926.97;5006932;28;20262;-41
2022/12/29 06:22:49;;;;;;;13.48;1.73;;;;;;;12.20;70.69;99915.50;5009214;28;20061;-44
2022/12/29 06:25:15;;;;;;;12.15;2.22;;;;;;;11.80;71.81;99927.13;5010575;28;20669;-42
2022/12/29 06:27:41;;;;;;;13.57;1.98;;;;;;;11.82;71.27;99925.41;5013221;28;20030;-41
2022/12/29 06:30:07;;;;;;;10.07;1.70;;;;;;;11.87;70.90;99938.41;5012016;28;20083;-41
2022/12/29 06:32:33;;;;;;;12.32;2.10;;;;;;;11.84;69.84;99926.22;5013192;28;20037;-42
2022/12/29 06:34:59;;;;;;;16.38;2.20;;;;;;;11.82;70.38;99921.91;5007704;28;20054;-43
2022/12/29 06:37:24;;;;;;;15.15;2.20;;;;;;;11.75;69.73;99913.25;5009926;28;20164;-41
2022/12/29 06:39:49;;;;;;;18.92;2.10;;;;;;;12.01;68.79;99913.06;5009597;28;20116;-43
2022/12/29 06:42:15;;;;;;;12.88;2.22;;;;;;;11.65;68.78;99925.44;5007569;28;20034;-43
2022/12/29 06:44:40;;;;;;;17.23;2.50;;;;;;;11.96;68.08;99902.63;5009989;28;20400;-41
2022/12/29 06:47:05;;;;;;;16.63;2.05;;;;;;;12.08;67.42;99912.13;5007749;28;20042;-41
2022/12/29 06:49:31;;;;;;;17.20;2.38;;;;;;;12.00;67.16;99927.00;5009849;28;20034;-41
2022/12/29 06:51:58;;;;;;;15.20;2.10;;;;;;;12.16;67.09;99924.25;5007427;28;20508;-41
2022/12/29 06:54:23;;;;;;;17.58;2.30;;;;;;;11.76;67.93;99928.91;5009826;28;20049;-41
2022/12/29 06:56:48;;;;;;;15.63;2.75;;;;;;;11.77;68.10;99925.41;5007938;28;20402;-41
2022/12/29 06:59:14;;;;;;;16.80;2.05;;;;;;;11.95;67.50;99926.19;5007978;28;20136;-41
2022/12/29 07:01:39;;;;;;;16.63;2.17;;;;;;;12.07;66.87;99924.34;5009620;28;20061;-42
2022/12/29 07:04:04;;;;;;;15.57;1.90;;;;;;;12.27;66.61;99934.63;5007549;28;20230;-40
2022/12/29 07:06:30;;;;;;;16.95;2.33;;;;;;;11.78;68.01;99955.00;5009705;28;20034;-42
2022/12/29 07:08:57;;;;;;;11.07;1.52;;;;;;;12.07;67.98;99934.78;5009763;28;20133;-41
2022/12/29 07:11:22;;;;;;;11.45;2.22;;;;;;;12.18;66.52;99937.31;5008662;28;20030;-41
2022/12/29 07:13:48;;;;;;;13.10;1.80;;;;;;;12.14;66.77;99928.63;5011756;28;20041;-43
2022/12/29 07:16:13;;;;;;;10.57;1.73;;;;;;;12.25;66.94;99945.97;5010431;28;20069;-42
2022/12/29 07:18:38;;;;;;;10.68;1.60;;;;;;;12.18;67.12;99939.94;5010904;28;20113;-41
2022/12/29 07:21:04;;;;;;;11.35;1.80;;;;;;;12.23;66.83;99947.72;5009214;28;20066;-42
2022/12/29 07:23:29;;;;;;;11.00;1.75;;;;;;;12.27;66.64;99946.81;5011112;28;20053;-42
2022/12/29 07:26:00;;;;;;;13.25;1.85;;;;;;;12.27;67.23;99942.44;5009350;28;20475;-42
2022/12/29 07:28:25;;;;;;;11.57;1.67;;;;;;;12.17;66.98;99941.66;5007209;28;20034;-46
2022/12/29 07:30:50;;;;;;;12.38;1.88;;;;;;;12.46;66.76;99940.53;5009704;28;20041;-43
2022/12/29 07:33:15;;;;;;;10.90;1.70;;;;;;;12.90;65.40;99932.25;5008147;28;20441;-43
2022/12/29 07:35:41;;;;;;;14.23;1.77;;;;;;;12.52;66.43;99941.34;5008482;28;20041;-42
2022/12/29 07:38:06;;;;;;;13.60;2.03;;;;;;;12.14;66.93;99930.34;5007697;28;20112;-41
2022/12/29 07:40:31;;;;;;;10.68;1.95;;;;;;;12.06;67.78;99943.50;5008930;28;20041;-41
2022/12/29 07:42:57;;;;;;;14.35;2.05;;;;;;;12.47;66.28;99927.47;5007131;28;20041;-41
2022/12/29 07:45:22;;;;;;;11.18;1.90;;;;;;;12.42;65.80;99949.31;5008713;28;20147;-41
2022/12/29 07:47:49;;;;;;;13.05;1.90;;;;;;;12.73;65.78;99931.56;5009061;28;20394;-41
2022/12/29 07:50:14;;;;;;;12.13;1.65;;;;;;;12.58;65.17;99943.91;5007109;28;20080;-41
2022/12/29 07:52:39;;;;;;;17.85;2.38;;;;;;;12.75;65.12;99937.63;5008994;28;20450;-42
2022/12/29 07:55:05;;;;;;;11.45;2.50;;;;;;;12.57;66.00;99933.47;5006471;28;20042;-41
2022/12/29 07:57:30;;;;;;;13.55;2.20;;;;;;;12.69;65.88;99938.56;5009077;28;20049;-42
2022/12/29 07:59:56;;;;;;;13.77;2.00;;;;;;;12.45;65.54;99937.06;5008133;28;20121;-39
2022/12/29 08:02:21;;;;;;;12.40;2.40;;;;;;;12.49;66.95;99945.75;5009350;28;20121;-44
2022/12/29 08:04:46;;;;;;;13.32;2.10;;;;;;;11.84;67.53;99947.13;5009654;28;20108;-41
2022/12/29 08:07:12;;;;;;;16.42;1.90;;;;;;;12.62;66.45;99944.78;5007162;28;20038;-41
2022/12/29 08:09:37;;;;;;;12.48;2.10;;;;;;;12.54;66.42;99950.06;5008986;28;20038;-42
2022/12/29 08:12:03;;;;;;;14.00;2.30;;;;;;;12.59;66.31;99952.63;5008654;28;20603;-41
2022/12/29 08:14:28;;;;;;;15.98;2.67;;;;;;;12.60;66.77;99951.75;5010165;28;20461;-43
2022/12/29 08:16:53;;;;;;;15.35;1.90;;;;;;;11.82;68.91;99958.47;5008631;28;20088;-43
2022/12/29 08:19:18;;;;;;;14.93;2.30;;;;;;;12.24;68.93;99959.91;5006826;28;20042;-41
2022/12/29 08:21:44;;;;;;;11.35;2.03;;;;;;;11.69;71.91;99955.03;5008905;28;20088;-41
2022/12/29 08:24:09;;;;;;;15.15;2.20;;;;;;;11.94;70.72;99959.28;5006958;28;20045;-41
2022/12/29 08:26:35;;;;;;;13.45;1.85;;;;;;;11.85;71.31;99967.16;5008785;28;20057;-41
2022/12/29 08:29:00;;;;;;;13.50;2.13;;;;;;;11.67;71.64;99973.31;5006854;28;20045;-41
2022/12/29 08:31:25;;;;;;;14.60;2.08;;;;;;;11.65;71.87;99976.78;5009729;28;20036;-43
2022/12/29 08:33:51;;;;;;;13.85;2.30;;;;;;;11.76;72.10;99967.22;5009210;28;20057;-42
2022/12/29 08:36:16;;;;;;;14.55;2.60;;;;;;;11.70;73.00;99978.53;5008055;28;20069;-43
2022/12/29 08:38:42;;;;;;;16.05;2.10;;;;;;;11.82;72.67;99977.63;5009148;28;20514;-41
2022/12/29 08:41:07;;;;;;;13.70;2.10;;;;;;;11.35;73.84;99990.84;5007090;28;20402;-44
2022/12/29 08:43:33;;;;;;;14.90;2.17;;;;;;;11.64;73.72;99962.91;5010467;28;20399;-40
2022/12/29 08:45:59;;;;;;;12.13;1.80;;;;;;;11.62;73.59;99985.53;5007743;28;20037;-41
2022/12/29 08:48:24;;;;;;;14.75;2.17;;;;;;;11.63;73.78;100010.78;5012664;28;20086;-41
2022/12/29 08:50:50;;;;;;;13.27;2.15;;;;;;;11.60;74.17;99994.22;5012899;28;20040;-41
2022/12/29 08:53:16;;;;;;;18.17;2.38;;;;;;;11.71;73.47;99993.31;5010796;28;20063;-41
2022/12/29 08:55:41;;;;;;;9.88;2.13;;;;;;;11.86;73.75;100012.41;5013163;28;20041;-41
2022/12/29 08:58:06;;;;;;;18.33;3.00;;;;;;;11.33;75.44;100011.75;5010393;28;20407;-41
2022/12/29 09:00:32;;;;;;;14.15;2.95;;;;;;;11.27;75.51;100013.53;5012370;28;20402;-42
2022/12/29 09:02:57;;;;;;;14.00;2.72;;;;;;;11.49;74.48;100024.75;5010267;28;20506;-40
2022/12/29 09:05:22;;;;;;;14.10;2.40;;;;;;;11.20;75.54;100032.66;5010586;28;20125;-42
2022/12/29 09:07:48;;;;;;;16.55;2.20;;;;;;;11.72;74.21;100034.22;5023603;23;20046;-42
2022/12/29 09:10:13;;;;;;;12.95;2.38;;;;;;;11.46;75.98;100049.13;5005268;28;20332;-42
2022/12/29 09:12:39;;;;;;;17.15;2.33;;;;;;;11.37;75.97;100065.66;5006585;28;20510;-46
2022/12/29 09:15:05;;;;;;;12.55;1.98;;;;;;;11.66;75.97;100062.94;5005275;28;20050;-41
2022/12/29 09:17:43;;;;;;;14.32;1.98;;;;;;;11.65;75.29;100063.81;5006573;28;20117;-49
2022/12/29 09:20:09;;;;;;;11.38;2.20;;;;;;;11.68;75.47;100069.03;5003606;28;20499;-43
2022/12/29 09:22:35;;;;;;;17.60;2.00;;;;;;;11.76;75.17;100076.91;5006956;28;20101;-42
2022/12/29 09:25:01;;;;;;;13.20;2.00;;;;;;;11.62;75.25;100089.97;5005092;28;20549;-43
2022/12/29 09:27:26;;;;;;;15.57;2.03;;;;;;;11.60;75.67;100094.31;5008063;28;20038;-42
2022/12/29 09:29:51;;;;;;;14.93;2.35;;;;;;;12.03;74.57;100094.16;5011721;28;20034;-46
2022/12/29 09:32:17;;;;;;;15.40;2.67;;;;;;;11.84;75.11;100096.00;5005282;28;20490;-41
2022/12/29 09:34:42;;;;;;;18.35;2.40;;;;;;;12.10;74.57;100101.97;5007354;28;20119;-42
2022/12/29 09:37:07;;;;;;;16.08;2.45;;;;;;;11.83;75.20;100096.88;5005442;28;20030;-42
2022/12/29 09:39:32;;;;;;;16.52;2.38;;;;;;;12.03;74.64;100102.00;5007171;28;20045;-43
2022/12/29 09:42:05;;;;;;;15.07;2.17;;;;;;;11.79;75.11;100102.97;5004253;28;20042;-46
2022/12/29 09:44:52;;;;;;;18.90;2.60;;;;;;;11.78;75.95;100107.31;5005214;28;20030;-45
2022/12/29 09:47:20;;;;;;;14.90;2.22;;;;;;;12.32;73.78;100112.31;5004832;28;20037;-42
2022/12/29 09:49:51;;;;;;;15.00;2.22;;;;;;;11.83;75.36;100123.00;5006586;28;20088;-43
2022/12/29 09:52:21;;;;;;;20.55;3.00;;;;;;;12.11;74.89;100122.00;5003328;28;20049;-41
2022/12/29 09:55:10;;;;;;;14.95;2.78;;;;;;;11.96;75.13;100134.25;5006777;28;20034;-46
2022/12/29 09:57:42;;;;;;;17.92;2.78;;;;;;;12.26;74.30;100146.31;5002388;28;20034;-44
2022/12/29 10:00:17;;;;;;;17.48;2.58;;;;;;;12.53;73.99;100146.16;5004492;28;20120;-46
2022/12/29 10:02:48;;;;;;;21.73;3.00;;;;;;;12.36;73.60;100145.41;5004857;28;20057;-45
2022/12/29 10:05:48;;;;;;;16.08;2.63;;;;;;;12.38;73.59;100160.16;5004281;28;20038;-44
2022/12/29 10:08:47;;;;;;;19.92;3.50;;;;;;;12.17;74.16;100168.13;4997176;28;20061;-45
2022/12/29 10:11:33;;;;;;;18.83;2.53;;;;;;;12.26;74.00;100180.31;5002973;28;20450;-43
2022/12/29 10:14:11;;;;;;;22.73;2.97;;;;;;;12.15;73.70;100180.31;5004271;28;20472;-43
2022/12/29 10:17:01;;;;;;;19.95;2.95;;;;;;;12.10;73.78;100187.31;5006131;28;20666;-43
2022/12/29 10:19:26;;;;;;;20.70;3.22;;;;;;;12.41;73.42;100190.66;5004438;28;20038;-45
2022/12/29 10:22:06;;;;;;;21.88;2.75;;;;;;;12.82;71.50;100196.53;5005827;28;20044;-43
2022/12/29 10:24:34;;;;;;;27.38;2.97;;;;;;;12.54;72.01;100193.22;5004495;28;20061;-42
2022/12/29 10:27:00;;;;;;;23.23;3.28;;;;;;;12.51;71.27;100205.41;5004213;28;20536;-43
2022/12/29 10:29:35;;;;;;;21.20;3.00;;;;;;;12.19;72.31;100206.47;5006094;28;20096;-42
2022/12/29 10:32:24;;;;;;;22.38;3.50;;;;;;;12.51;70.90;100215.88;5003752;28;20044;-46
2022/12/29 10:34:56;;;;;;;20.20;3.05;;;;;;;12.28;71.72;100222.97;5006272;28;20061;-42
2022/12/29 10:37:29;;;;;;;19.67;3.17;;;;;;;12.20;71.29;100222.97;5002892;28;20069;-45
2022/12/29 10:39:55;;;;;;;24.52;2.92;;;;;;;12.78;70.11;100225.34;5006069;28;20091;-42
2022/12/29 10:42:28;;;;;;;24.08;3.10;;;;;;;12.62;69.83;100224.56;5004016;28;20397;-42
2022/12/29 10:44:55;;;;;;;19.00;2.72;;;;;;;12.89;68.30;100240.09;5005834;28;20042;-44
2022/12/29 10:47:31;;;;;;;16.83;2.40;;;;;;;12.96;67.71;100248.75;5004427;28;20034;-48
2022/12/29 10:49:58;;;;;;;23.30;2.78;;;;;;;13.01;66.92;100236.53;5004567;28;20503;-44
2022/12/29 10:52:26;;;;;;;15.18;2.47;;;;;;;13.14;66.09;100238.22;5005720;28;20498;-44
2022/12/29 10:55:00;;;;;;;23.33;2.40;;;;;;;13.13;66.44;100246.06;5005935;28;20128;-46
2022/12/29 10:57:35;;;;;;;15.35;2.70;;;;;;;13.14;66.21;100243.44;5005158;28;20090;-45
2022/12/29 11:00:01;;;;;;;14.32;2.10;;;;;;;12.68;67.16;100255.03;5006136;28;20507;-45
2022/12/29 11:02:57;;;;;;;20.33;3.00;;;;;;;13.20;65.43;100259.09;5007117;28;20049;-50
2022/12/29 11:05:26;;;;;;;15.98;2.55;;;;;;;13.22;65.66;100257.34;5004953;28;20044;-45
2022/12/29 11:08:01;;;;;;;21.33;2.55;;;;;;;13.21;64.72;100270.44;5005451;28;20057;-43
2022/12/29 11:10:32;;;;;;;17.73;2.88;;;;;;;13.18;65.14;100279.16;5006613;28;20038;-42
2022/12/29 11:12:59;;;;;;;18.17;2.65;;;;;;;13.19;65.06;100303.59;5007426;28;20046;-43
2022/12/29 11:15:25;;;;;;;20.88;2.65;;;;;;;13.14;65.75;100287.94;5009350;28;20037;-43
2022/12/29 11:17:53;;;;;;;19.95;2.60;;;;;;;13.08;65.46;100287.94;5009345;28;20030;-43
2022/12/29 11:20:28;;;;;;;17.50;2.67;;;;;;;13.03;64.79;100292.34;5008353;28;20026;-48
2022/12/29 11:22:53;;;;;;;12.18;2.10;;;;;;;12.83;64.49;100302.91;5010885;28;20052;-47
2022/12/29 11:25:19;;;;;;;13.38;2.25;;;;;;;12.87;64.05;100281.06;5008413;28;20113;-42
2022/12/29 11:28:14;;;;;;;15.75;1.92;;;;;;;12.78;64.38;100285.50;5010874;28;20083;-43
2022/12/29 11:30:39;;;;;;;11.65;2.08;;;;;;;12.85;64.02;100306.41;5009482;28;20037;-45
2022/12/29 11:33:04;;;;;;;17.02;2.83;;;;;;;12.64;64.11;100293.41;5008151;28;20091;-42
2022/12/29 11:35:42;;;;;;;18.88;2.17;;;;;;;13.13;63.32;100299.28;5009234;28;20041;-45
2022/12/29 11:38:21;;;;;;;17.95;2.28;;;;;;;13.08;63.51;100306.25;5007308;28;20038;-42
2022/12/29 11:40:48;;;;;;;13.98;2.08;;;;;;;12.69;65.25;100307.31;5009037;28;20034;-45
2022/12/29 11:43:43;;;;;;;19.67;2.25;;;;;;;12.82;65.29;100308.13;5007114;28;20038;-41
2022/12/29 11:46:17;;;;;;;22.00;2.30;;;;;;;12.68;65.14;100313.44;5005342;28;20516;-43
2022/12/29 11:48:42;;;;;;;11.45;1.70;;;;;;;12.55;65.23;100314.38;5008980;28;20026;-41
2022/12/29 11:51:11;;;;;;;11.30;1.90;;;;;;;12.46;64.47;100312.63;5006843;28;20092;-43
2022/12/29 11:53:49;;;;;;;9.35;2.20;;;;;;;12.28;63.09;100320.53;5008198;28;20034;-42
2022/12/29 11:56:31;;;;;;;10.45;1.77;;;;;;;12.69;62.69;100325.63;5006956;28;20528;-43
2022/12/29 11:58:56;;;;;;;11.43;1.67;;;;;;;12.73;62.54;100319.53;5006788;28;20037;-48
2022/12/29 12:01:37;;;;;;;10.40;2.20;;;;;;;12.56;62.19;100323.97;5008542;28;20034;-43
2022/12/29 12:04:09;;;;;;;10.00;2.00;;;;;;;12.79;61.86;100324.72;5007682;28;20053;-42
2022/12/29 12:06:45;;;;;;;13.18;2.00;;;;;;;12.84;62.46;100324.69;5012524;28;20450;-42